createdAt,value
2023-05-12T00:00:46.815Z,508.00
2023-05-12T00:01:46.844Z,504.00
2023-05-12T00:02:46.950Z,507.00
2023-05-12T00:03:47.204Z,512.00
2023-05-12T00:04:47.014Z,508.00
2023-05-12T00:05:46.938Z,516.00
2023-05-12T00:06:46.958Z,510.00
2023-05-12T00:07:47.034Z,501.00
2023-05-12T00:08:46.989Z,511.00
2023-05-12T00:09:47.022Z,511.00
2023-05-12T00:10:47.060Z,507.00
2023-05-12T00:11:47.086Z,505.00
2023-05-12T00:12:47.125Z,510.00
2023-05-12T00:13:47.188Z,507.00
2023-05-12T00:14:47.145Z,506.00
2023-05-12T00:15:47.174Z,502.00
2023-05-12T00:16:47.301Z,506.00
2023-05-12T00:17:47.315Z,505.00
2023-05-12T00:18:47.291Z,508.00
2023-05-12T00:19:47.245Z,514.00
2023-05-12T00:20:47.319Z,506.00
2023-05-12T00:21:47.290Z,506.00
2023-05-12T00:22:47.316Z,505.00
2023-05-12T00:23:47.321Z,509.00
2023-05-12T00:24:47.333Z,502.00
2023-05-12T00:25:47.364Z,502.00
2023-05-12T00:26:47.371Z,507.00
2023-05-12T00:27:47.400Z,507.00
2023-05-12T00:28:47.426Z,506.00
2023-05-12T00:29:47.442Z,514.00
2023-05-12T00:30:47.475Z,516.00
2023-05-12T00:31:47.547Z,515.00
2023-05-12T00:32:47.541Z,517.00
2023-05-12T00:33:47.547Z,514.00
2023-05-12T00:34:47.552Z,519.00
2023-05-12T00:35:47.584Z,517.00
2023-05-12T00:36:47.582Z,513.00
2023-05-12T00:37:47.616Z,512.00
2023-05-12T00:38:47.636Z,515.00
2023-05-12T00:39:47.652Z,514.00
2023-05-12T00:40:47.693Z,507.00
2023-05-12T00:41:47.704Z,509.00
2023-05-12T00:42:47.734Z,513.00
2023-05-12T00:43:47.737Z,513.00
2023-05-12T00:44:47.854Z,517.00
2023-05-12T00:45:47.789Z,519.00
2023-05-12T00:46:47.803Z,517.00
2023-05-12T00:47:47.864Z,517.00
2023-05-12T00:48:47.853Z,509.00
2023-05-12T00:49:47.876Z,508.00
2023-05-12T00:50:47.930Z,505.00
2023-05-12T00:51:47.925Z,506.00
2023-05-12T00:52:47.928Z,508.00
2023-05-12T00:53:50.199Z,508.00
2023-05-12T00:54:47.990Z,508.00
2023-05-12T00:55:47.995Z,509.00
2023-05-12T00:56:48.026Z,509.00
2023-05-12T00:57:48.055Z,504.00
2023-05-12T00:58:48.068Z,504.00
2023-05-12T00:59:48.204Z,504.00
2023-05-12T01:00:48.240Z,507.00
2023-05-12T01:01:48.140Z,500.00
2023-05-12T01:02:48.275Z,507.00
2023-05-12T01:03:48.217Z,512.00
2023-05-12T01:04:48.209Z,517.00
2023-05-12T01:05:48.202Z,517.00
2023-05-12T01:06:48.177Z,516.00
2023-05-12T01:07:48.170Z,510.00
2023-05-12T01:08:48.144Z,516.00
2023-05-12T01:09:48.122Z,513.00
2023-05-12T01:10:48.122Z,511.00
2023-05-12T01:11:48.132Z,511.00
2023-05-12T01:12:48.094Z,514.00
2023-05-12T01:13:48.057Z,506.00
2023-05-12T01:14:48.056Z,508.00
2023-05-12T01:15:48.039Z,510.00
2023-05-12T01:16:48.053Z,512.00
2023-05-12T01:17:48.157Z,512.00
2023-05-12T01:18:48.007Z,505.00
2023-05-12T01:19:47.970Z,508.00
2023-05-12T01:20:47.971Z,508.00
2023-05-12T01:21:47.936Z,512.00
2023-05-12T01:22:47.909Z,512.00
2023-05-12T01:23:47.935Z,513.00
2023-05-12T01:24:47.884Z,514.00
2023-05-12T01:25:47.852Z,511.00
2023-05-12T01:26:47.839Z,510.00
2023-05-12T01:27:47.816Z,506.00
2023-05-12T01:28:47.805Z,507.00
2023-05-12T01:29:47.777Z,509.00
2023-05-12T01:30:47.822Z,504.00
2023-05-12T01:31:47.907Z,507.00
2023-05-12T01:32:47.771Z,511.00
2023-05-12T01:33:47.714Z,510.00
2023-05-12T01:34:47.685Z,515.00
2023-05-12T01:35:47.715Z,517.00
2023-05-12T01:36:47.722Z,518.00
2023-05-12T01:37:47.754Z,517.00
2023-05-12T01:38:47.787Z,516.00
2023-05-12T01:39:47.813Z,511.00
2023-05-12T01:40:47.826Z,504.00
2023-05-12T01:41:47.860Z,510.00
2023-05-12T01:42:47.887Z,509.00
2023-05-12T01:43:47.897Z,514.00
2023-05-12T01:44:47.974Z,508.00
2023-05-12T01:45:47.975Z,514.00
2023-05-12T01:46:48.032Z,514.00
2023-05-12T01:47:48.157Z,512.00
2023-05-12T01:48:48.040Z,515.00
2023-05-12T01:49:48.069Z,515.00
2023-05-12T01:50:48.153Z,518.00
2023-05-12T01:51:48.112Z,512.00
2023-05-12T01:52:48.146Z,513.00
2023-05-12T01:53:48.150Z,513.00
2023-05-12T01:54:48.119Z,514.00
2023-05-12T01:55:48.099Z,513.00
2023-05-12T01:56:48.107Z,509.00
2023-05-12T01:57:48.082Z,504.00
2023-05-12T01:58:48.094Z,505.00
2023-05-12T01:59:48.059Z,508.00
2023-05-12T02:00:48.024Z,505.00
2023-05-12T02:01:48.061Z,509.00
2023-05-12T02:02:48.065Z,504.00
2023-05-12T02:03:48.108Z,506.00
2023-05-12T02:04:47.964Z,504.00
2023-05-12T02:05:47.954Z,503.00
2023-05-12T02:06:47.966Z,501.00
2023-05-12T02:07:47.999Z,503.00
2023-05-12T02:08:48.098Z,507.00
2023-05-12T02:09:48.068Z,506.00
2023-05-12T02:10:48.067Z,511.00
2023-05-12T02:11:48.097Z,510.00
2023-05-12T02:12:48.119Z,510.00
2023-05-12T02:13:48.151Z,510.00
2023-05-12T02:14:48.186Z,506.00
2023-05-12T02:15:48.210Z,507.00
2023-05-12T02:16:48.392Z,511.00
2023-05-12T02:17:48.314Z,511.00
2023-05-12T02:18:48.398Z,513.00
2023-05-12T02:19:48.337Z,509.00
2023-05-12T02:20:48.376Z,509.00
2023-05-12T02:21:48.462Z,514.00
2023-05-12T02:22:48.423Z,510.00
2023-05-12T02:23:48.453Z,510.00
2023-05-12T02:24:48.493Z,516.00
2023-05-12T02:25:48.520Z,515.00
2023-05-12T02:26:48.547Z,515.00
2023-05-12T02:27:48.581Z,514.00
2023-05-12T02:28:48.599Z,518.00
2023-05-12T02:29:48.624Z,520.00
2023-05-12T02:30:48.710Z,516.00
2023-05-12T02:31:48.718Z,513.00
2023-05-12T02:32:48.783Z,513.00
2023-05-12T02:33:48.761Z,515.00
2023-05-12T02:34:48.795Z,517.00
2023-05-12T02:35:48.807Z,509.00
2023-05-12T02:36:48.843Z,509.00
2023-05-12T02:37:48.877Z,507.00
2023-05-12T02:38:48.909Z,509.00
2023-05-12T02:39:48.918Z,510.00
2023-05-12T02:40:48.953Z,518.00
2023-05-12T02:41:48.976Z,513.00
2023-05-12T02:42:49.009Z,510.00
2023-05-12T02:43:49.029Z,507.00
2023-05-12T02:44:49.060Z,508.00
2023-05-12T02:45:49.126Z,506.00
2023-05-12T02:46:49.154Z,510.00
2023-05-12T02:47:49.196Z,507.00
2023-05-12T02:48:49.176Z,505.00
2023-05-12T02:49:49.212Z,510.00
2023-05-12T02:50:49.242Z,510.00
2023-05-12T02:51:49.268Z,509.00
2023-05-12T02:52:49.301Z,507.00
2023-05-12T02:53:49.287Z,508.00
2023-05-12T02:54:49.267Z,508.00
2023-05-12T02:55:49.238Z,501.00
2023-05-12T02:56:49.217Z,502.00
2023-05-12T02:57:49.194Z,505.00
2023-05-12T02:58:49.191Z,505.00
2023-05-12T02:59:49.178Z,506.00
2023-05-12T03:00:56.897Z,505.00
2023-05-12T03:01:50.190Z,505.00
2023-05-12T03:02:49.172Z,506.00
2023-05-12T03:03:49.230Z,507.00
2023-05-12T03:04:49.057Z,506.00
2023-05-12T03:05:49.050Z,502.00
2023-05-12T03:06:49.032Z,507.00
2023-05-12T03:07:49.009Z,506.00
2023-05-12T03:08:49.016Z,510.00
2023-05-12T03:09:48.992Z,506.00
2023-05-12T03:10:48.971Z,506.00
2023-05-12T03:11:48.955Z,505.00
2023-05-12T03:12:48.938Z,511.00
2023-05-12T03:13:48.977Z,507.00
2023-05-12T03:14:49.000Z,504.00
2023-05-12T03:15:49.034Z,500.00
2023-05-12T03:16:49.133Z,503.00
2023-05-12T03:17:49.107Z,503.00
2023-05-12T03:18:49.164Z,503.00
2023-05-12T03:19:49.047Z,503.00
2023-05-12T03:20:49.025Z,505.00
2023-05-12T03:21:49.013Z,507.00
2023-05-12T03:22:49.007Z,511.00
2023-05-12T03:23:48.987Z,506.00
2023-05-12T03:24:48.982Z,506.00
2023-05-12T03:25:48.958Z,507.00
2023-05-12T03:26:48.938Z,506.00
2023-05-12T03:27:48.927Z,502.00
2023-05-12T03:28:48.920Z,504.00
2023-05-12T03:29:48.901Z,509.00
2023-05-12T03:30:48.888Z,510.00
2023-05-12T03:31:48.948Z,510.00
2023-05-12T03:32:48.904Z,510.00
2023-05-12T03:33:48.845Z,505.00
2023-05-12T03:34:48.834Z,504.00
2023-05-12T03:35:48.828Z,506.00
2023-05-12T03:36:48.835Z,503.00
2023-05-12T03:37:48.882Z,507.00
2023-05-12T03:38:48.900Z,512.00
2023-05-12T03:39:48.949Z,508.00
2023-05-12T03:40:48.989Z,510.00
2023-05-12T03:41:49.024Z,511.00
2023-05-12T03:42:49.058Z,507.00
2023-05-12T03:43:49.096Z,506.00
2023-05-12T03:44:49.114Z,500.00
2023-05-12T03:45:49.143Z,505.00
2023-05-12T03:46:49.225Z,502.00
2023-05-12T03:47:49.282Z,504.00
2023-05-12T03:48:49.247Z,509.00
2023-05-12T03:49:49.288Z,509.00
2023-05-12T03:50:49.321Z,505.00
2023-05-12T03:51:49.349Z,506.00
2023-05-12T03:52:49.384Z,500.00
2023-05-12T03:53:49.362Z,500.00
2023-05-12T03:54:49.360Z,501.00
2023-05-12T03:55:49.352Z,501.00
2023-05-12T03:56:49.338Z,501.00
2023-05-12T03:57:49.322Z,502.00
2023-05-12T03:58:49.314Z,500.00
2023-05-12T03:59:49.309Z,501.00
2023-05-12T04:00:49.305Z,503.00
2023-05-12T04:01:49.344Z,501.00
2023-05-12T04:02:49.359Z,501.00
2023-05-12T04:03:49.417Z,505.00
2023-05-12T04:04:49.260Z,510.00
2023-05-12T04:05:49.254Z,508.00
2023-05-12T04:06:49.273Z,507.00
2023-05-12T04:07:49.243Z,502.00
2023-05-12T04:08:49.232Z,505.00
2023-05-12T04:09:49.220Z,510.00
2023-05-12T04:10:49.200Z,509.00
2023-05-12T04:11:49.244Z,502.00
2023-05-12T04:12:49.273Z,508.00
2023-05-12T04:13:49.294Z,500.00
2023-05-12T04:14:49.335Z,503.00
2023-05-12T04:15:49.361Z,505.00
2023-05-12T04:16:49.497Z,504.00
2023-05-12T04:17:49.468Z,504.00
2023-05-12T04:18:49.531Z,503.00
2023-05-12T04:19:49.500Z,508.00
2023-05-12T04:20:49.525Z,510.00
2023-05-12T04:21:49.578Z,512.00
2023-05-12T04:22:49.594Z,508.00
2023-05-12T04:23:49.629Z,507.00
2023-05-12T04:24:49.672Z,503.00
2023-05-12T04:25:49.681Z,505.00
2023-05-12T04:26:49.720Z,503.00
2023-05-12T04:27:49.761Z,500.00
2023-05-12T04:28:49.801Z,507.00
2023-05-12T04:29:49.813Z,507.00
2023-05-12T04:30:49.852Z,511.00
2023-05-12T04:31:49.929Z,510.00
2023-05-12T04:32:49.966Z,509.00
2023-05-12T04:33:49.928Z,500.00
2023-05-12T04:34:49.972Z,502.00
2023-05-12T04:35:50.008Z,502.00
2023-05-12T04:36:50.030Z,505.00
2023-05-12T04:37:50.058Z,507.00
2023-05-12T04:38:50.096Z,507.00
2023-05-12T04:39:50.124Z,507.00
2023-05-12T04:40:50.161Z,511.00
2023-05-12T04:41:50.193Z,509.00
2023-05-12T04:42:50.176Z,509.00
2023-05-12T04:44:50.183Z,511.00
2023-05-12T04:45:50.168Z,511.00
2023-05-12T04:46:50.132Z,517.00
2023-05-12T04:47:50.121Z,513.00
2023-05-12T04:48:50.106Z,517.00
2023-05-12T04:49:50.098Z,512.00
2023-05-12T04:50:50.092Z,512.00
2023-05-12T04:51:50.076Z,509.00
2023-05-12T04:52:50.064Z,509.00
2023-05-12T04:53:50.063Z,510.00
2023-05-12T04:54:50.044Z,511.00
2023-05-12T04:55:50.028Z,510.00
2023-05-12T04:56:50.030Z,509.00
2023-05-12T04:57:50.001Z,506.00
2023-05-12T04:58:49.989Z,507.00
2023-05-12T04:59:49.981Z,505.00
2023-05-12T05:00:49.958Z,509.00
2023-05-12T05:01:49.997Z,512.00
2023-05-12T05:02:49.986Z,513.00
2023-05-12T05:03:50.110Z,511.00
2023-05-12T05:04:49.936Z,512.00
2023-05-12T05:05:49.969Z,502.00
2023-05-12T05:06:50.025Z,510.00
2023-05-12T05:07:50.026Z,507.00
2023-05-12T05:08:50.077Z,504.00
2023-05-12T05:09:50.094Z,506.00
2023-05-12T05:10:50.133Z,502.00
2023-05-12T05:11:50.161Z,506.00
2023-05-12T05:12:50.174Z,509.00
2023-05-12T05:13:50.234Z,502.00
2023-05-12T05:14:50.244Z,500.00
2023-05-12T05:15:50.324Z,503.00
2023-05-12T05:16:50.349Z,505.00
2023-05-12T05:17:50.404Z,504.00
2023-05-12T05:18:50.396Z,504.00
2023-05-12T05:19:58.517Z,505.00
2023-05-12T05:20:57.356Z,505.00
2023-05-12T05:21:51.375Z,506.00
2023-05-12T05:22:50.361Z,508.00
2023-05-12T05:23:50.350Z,509.00
2023-05-12T05:24:50.332Z,511.00
2023-05-12T05:25:50.299Z,514.00
2023-05-12T05:26:50.292Z,515.00
2023-05-12T05:27:50.314Z,510.00
2023-05-12T05:28:50.260Z,508.00
2023-05-12T05:29:50.263Z,512.00
2023-05-12T05:30:50.263Z,513.00
2023-05-12T05:31:50.262Z,515.00
2023-05-12T05:32:50.225Z,517.00
2023-05-12T05:33:50.263Z,512.00
2023-05-12T05:34:50.174Z,514.00
2023-05-12T05:35:50.165Z,519.00
2023-05-12T05:36:50.142Z,517.00
2023-05-12T05:37:50.171Z,525.00
2023-05-12T05:38:50.112Z,531.00
2023-05-12T05:39:50.109Z,553.00
2023-05-12T05:40:53.630Z,578.00
2023-05-12T05:41:50.082Z,578.00
2023-05-12T05:42:50.074Z,584.00
2023-05-12T05:43:50.047Z,608.00
2023-05-12T05:44:50.034Z,659.00
2023-05-12T05:45:50.297Z,828.00
2023-05-12T05:46:49.997Z,924.00
2023-05-12T05:47:50.068Z,1041.00
2023-05-12T05:48:49.948Z,1122.00
2023-05-12T05:49:49.954Z,1177.00
2023-05-12T05:50:49.919Z,1238.00
2023-05-12T05:51:49.895Z,1298.00
2023-05-12T05:52:49.893Z,1371.00
2023-05-12T05:53:49.923Z,1380.00
2023-05-12T05:54:49.828Z,1405.00
2023-05-12T05:55:49.805Z,1439.00
2023-05-12T05:56:49.791Z,1483.00
2023-05-12T05:57:49.792Z,1520.00
2023-05-12T05:58:49.728Z,1522.00
2023-05-12T05:59:49.724Z,1531.00
2023-05-12T06:00:49.693Z,1555.00
2023-05-12T06:01:49.800Z,1602.00
2023-05-12T06:02:49.945Z,1679.00
2023-05-12T06:03:49.767Z,1699.00
2023-05-12T06:04:49.598Z,1740.00
2023-05-12T06:05:49.568Z,1742.00
2023-05-12T06:06:49.550Z,1769.00
2023-05-12T06:07:49.520Z,1792.00
2023-05-12T06:08:49.479Z,1801.00
2023-05-12T06:09:49.467Z,1813.00
2023-05-12T06:10:49.433Z,1835.00
2023-05-12T06:11:49.397Z,1859.00
2023-05-12T06:12:49.444Z,1890.00
2023-05-12T06:13:49.365Z,1902.00
2023-05-12T06:14:49.313Z,1923.00
2023-05-12T06:15:49.280Z,1941.00
2023-05-12T06:16:49.323Z,1942.00
2023-05-12T06:17:49.261Z,1949.00
2023-05-12T06:18:49.228Z,1944.00
2023-05-12T06:19:49.137Z,1954.00
2023-05-12T06:20:49.113Z,1978.00
2023-05-12T06:21:49.112Z,1946.00
2023-05-12T06:22:49.055Z,1963.00
2023-05-12T06:23:49.017Z,1992.00
2023-05-12T06:24:48.984Z,2045.00
2023-05-12T06:25:48.947Z,2112.00
2023-05-12T06:26:48.920Z,2132.00
2023-05-12T06:27:48.885Z,2154.00
2023-05-12T06:28:48.848Z,2160.00
2023-05-12T06:29:48.835Z,2171.00
2023-05-12T06:30:48.869Z,2162.00
2023-05-12T06:31:48.933Z,2173.00
2023-05-12T06:32:49.038Z,2194.00
2023-05-12T06:33:48.956Z,2208.00
2023-05-12T06:34:48.983Z,2203.00
2023-05-12T06:35:49.055Z,2220.00
2023-05-12T06:36:49.040Z,2242.00
2023-05-12T06:37:49.086Z,2228.00
2023-05-12T06:38:49.134Z,2252.00
2023-05-12T06:39:49.142Z,2269.00
2023-05-12T06:40:49.171Z,2279.00
2023-05-12T06:41:49.200Z,2318.00
2023-05-12T06:42:49.366Z,2301.00
2023-05-12T06:43:49.305Z,2282.00
2023-05-12T06:44:49.328Z,2234.00
2023-05-12T06:45:49.410Z,2216.00
2023-05-12T06:46:49.463Z,2120.00
2023-05-12T06:47:49.446Z,2073.00
2023-05-12T06:48:49.549Z,2020.00
2023-05-12T06:49:49.458Z,1932.00
2023-05-12T06:50:49.485Z,1869.00
2023-05-12T06:51:49.521Z,1881.00
2023-05-12T06:52:49.549Z,1824.00
2023-05-12T06:53:49.566Z,1809.00
2023-05-12T06:54:49.546Z,1774.00
2023-05-12T06:55:49.551Z,1738.00
2023-05-12T06:56:49.554Z,1591.00
2023-05-12T06:57:49.531Z,1531.00
2023-05-12T06:58:49.573Z,1503.00
2023-05-12T06:59:49.452Z,1503.00
2023-05-12T07:00:49.391Z,1503.00
2023-05-12T07:01:49.507Z,1471.00
2023-05-12T07:02:49.327Z,1480.00
2023-05-12T07:03:49.348Z,1466.00
2023-05-12T07:04:49.235Z,1463.00
2023-05-12T07:05:49.272Z,1453.00
2023-05-12T07:06:49.165Z,1429.00
2023-05-12T07:07:49.147Z,1450.00
2023-05-12T07:08:49.100Z,1437.00
2023-05-12T07:09:49.107Z,1409.00
2023-05-12T07:10:49.128Z,1408.00
2023-05-12T07:11:49.097Z,1409.00
2023-05-12T07:12:49.074Z,1378.00
2023-05-12T07:13:49.003Z,1369.00
2023-05-12T07:14:48.962Z,1364.00
2023-05-12T07:15:48.941Z,1341.00
2023-05-12T07:16:48.896Z,1299.00
2023-05-12T07:17:48.988Z,1301.00
2023-05-12T07:18:49.525Z,1309.00
2023-05-12T07:19:48.804Z,1289.00
2023-05-12T07:20:48.740Z,1274.00
2023-05-12T07:21:48.751Z,1268.00
2023-05-12T07:22:48.676Z,1230.00
2023-05-12T07:23:48.637Z,1229.00
2023-05-12T07:24:48.660Z,1244.00
2023-05-12T07:25:48.645Z,1225.00
2023-05-12T07:26:48.521Z,1222.00
2023-05-12T07:27:48.508Z,1218.00
2023-05-12T07:28:48.482Z,1184.00
2023-05-12T07:29:48.452Z,1191.00
2023-05-12T07:30:48.452Z,1196.00
2023-05-12T07:31:48.379Z,1197.00
2023-05-12T07:32:48.388Z,1181.00
2023-05-12T07:33:48.317Z,1169.00
2023-05-12T07:34:48.315Z,1156.00
2023-05-12T07:35:48.302Z,1150.00
2023-05-12T07:36:48.261Z,1165.00
2023-05-12T07:37:48.293Z,1261.00
2023-05-12T07:38:48.221Z,1262.00
2023-05-12T07:39:48.212Z,1276.00
2023-05-12T07:40:48.261Z,1291.00
2023-05-12T07:41:48.181Z,1363.00
2023-05-12T07:42:48.175Z,1381.00
2023-05-12T07:43:55.187Z,1374.00
2023-05-12T07:44:48.093Z,1377.00
2023-05-12T07:45:48.074Z,1392.00
2023-05-12T07:46:48.162Z,1436.00
2023-05-12T07:47:48.084Z,1512.00
2023-05-12T07:48:47.974Z,1620.00
2023-05-12T07:49:47.947Z,1702.00
2023-05-12T07:50:47.932Z,1763.00
2023-05-12T07:51:47.939Z,1776.00
2023-05-12T07:52:48.016Z,1792.00
2023-05-12T07:53:47.892Z,1787.00
2023-05-12T07:54:47.741Z,1731.00
2023-05-12T07:55:47.699Z,1659.00
2023-05-12T07:56:47.673Z,1646.00
2023-05-12T07:57:47.613Z,1589.00
2023-05-12T07:58:47.785Z,1601.00
2023-05-12T07:59:47.554Z,1636.00
2023-05-12T08:00:47.472Z,1647.00
2023-05-12T08:01:47.499Z,1662.00
2023-05-12T08:02:47.778Z,1676.00
2023-05-12T08:03:47.436Z,1677.00
2023-05-12T08:04:47.309Z,1667.00
2023-05-12T08:05:47.270Z,1617.00
2023-05-12T08:06:47.211Z,1651.00
2023-05-12T08:07:47.196Z,1659.00
2023-05-12T08:08:47.151Z,1713.00
2023-05-12T08:09:47.076Z,1700.00
2023-05-12T08:10:47.117Z,1749.00
2023-05-12T08:11:50.017Z,1750.00
2023-05-12T08:12:46.940Z,1751.00
2023-05-12T08:13:46.889Z,1645.00
2023-05-12T08:14:46.854Z,1642.00
2023-05-12T08:15:46.868Z,1590.00
2023-05-12T08:16:46.770Z,1608.00
2023-05-12T08:17:47.566Z,1725.00
2023-05-12T08:18:46.700Z,1751.00
2023-05-12T08:19:46.574Z,1759.00
2023-05-12T08:20:46.612Z,1754.00
2023-05-12T08:21:46.492Z,1796.00
2023-05-12T08:22:46.421Z,1834.00
2023-05-12T08:23:46.376Z,1762.00
2023-05-12T08:24:46.347Z,1778.00
2023-05-12T08:25:46.490Z,1828.00
2023-05-12T08:26:46.237Z,1883.00
2023-05-12T08:27:46.190Z,1839.00
2023-05-12T08:28:46.155Z,1799.00
2023-05-12T08:29:46.112Z,1747.00
2023-05-12T08:30:46.149Z,1639.00
2023-05-12T08:31:46.019Z,1489.00
2023-05-12T08:32:46.060Z,1405.00
2023-05-12T08:33:48.296Z,1388.00
2023-05-12T08:34:46.003Z,1383.00
2023-05-12T08:35:45.955Z,1352.00
2023-05-12T08:36:45.851Z,1352.00
2023-05-12T08:37:45.822Z,1322.00
2023-05-12T08:38:45.766Z,1297.00
2023-05-12T08:39:46.492Z,1270.00
2023-05-12T08:40:46.470Z,1247.00
2023-05-12T08:41:45.720Z,1244.00
2023-05-12T08:42:45.999Z,1212.00
2023-05-12T08:43:45.523Z,1203.00
2023-05-12T08:44:45.703Z,1162.00
2023-05-12T08:45:45.662Z,1146.00
2023-05-12T08:46:45.481Z,1064.00
2023-05-12T08:47:45.593Z,983.00
2023-05-12T08:48:46.006Z,980.00
2023-05-12T08:49:45.497Z,957.00
2023-05-12T08:50:45.275Z,955.00
2023-05-12T08:51:48.072Z,955.00
2023-05-12T08:52:46.114Z,931.00
2023-05-12T08:53:45.101Z,953.00
2023-05-12T08:54:55.060Z,963.00
2023-05-12T08:55:57.088Z,956.00
2023-05-12T08:57:44.910Z,957.00
2023-05-12T08:58:44.872Z,961.00
2023-05-12T08:59:44.858Z,966.00
2023-05-12T09:00:44.857Z,985.00
2023-05-12T09:01:44.833Z,1022.00
2023-05-12T09:02:52.979Z,1009.00
2023-05-12T09:03:45.658Z,1010.00
2023-05-12T09:04:44.657Z,1014.00
2023-05-12T09:05:44.586Z,1024.00
2023-05-12T09:06:45.030Z,1070.00
2023-05-12T09:07:44.465Z,1127.00
2023-05-12T09:08:44.405Z,1119.00
2023-05-12T09:09:44.370Z,1174.00
2023-05-12T09:10:44.337Z,1224.00
2023-05-12T09:11:44.274Z,1241.00
2023-05-12T09:12:44.209Z,1299.00
2023-05-12T09:13:44.205Z,1296.00
2023-05-12T09:14:44.109Z,1279.00
2023-05-12T09:15:44.068Z,1249.00
2023-05-12T09:16:44.106Z,1239.00
2023-05-12T09:17:44.006Z,1213.00
2023-05-12T09:18:43.968Z,1232.00
2023-05-12T09:19:43.857Z,1214.00
2023-05-12T09:20:43.846Z,1254.00
2023-05-12T09:21:43.751Z,1257.00
2023-05-12T09:22:43.722Z,1267.00
2023-05-12T09:23:43.643Z,1294.00
2023-05-12T09:24:43.613Z,1332.00
2023-05-12T09:25:43.572Z,1406.00
2023-05-12T09:26:43.991Z,1441.00
2023-05-12T09:27:43.438Z,1460.00
2023-05-12T09:28:43.407Z,1461.00
2023-05-12T09:29:55.571Z,1473.00
2023-05-12T09:30:44.545Z,1474.00
2023-05-12T09:31:43.280Z,1479.00
2023-05-12T09:32:43.216Z,1480.00
2023-05-12T09:33:43.162Z,1446.00
2023-05-12T09:34:43.118Z,1474.00
2023-05-12T09:35:43.072Z,1467.00
2023-05-12T09:36:42.997Z,1472.00
2023-05-12T09:37:42.964Z,1476.00
2023-05-12T09:38:42.932Z,1497.00
2023-05-12T09:39:42.856Z,1527.00
2023-05-12T09:40:42.817Z,1531.00
2023-05-12T09:41:42.736Z,1576.00
2023-05-12T09:42:42.694Z,1681.00
2023-05-12T09:43:42.662Z,1703.00
2023-05-12T09:44:42.593Z,1697.00
2023-05-12T09:45:42.587Z,1646.00
2023-05-12T09:46:42.535Z,1647.00
2023-05-12T09:47:42.465Z,1628.00
2023-05-12T09:48:42.615Z,1589.00
2023-05-12T09:49:42.369Z,1614.00
2023-05-12T09:50:47.446Z,1559.00
2023-05-12T09:51:42.203Z,1549.00
2023-05-12T09:52:42.430Z,1500.00
2023-05-12T09:53:42.202Z,1494.00
2023-05-12T09:54:42.071Z,1518.00
2023-05-12T09:55:42.553Z,1529.00
2023-05-12T09:56:42.651Z,1514.00
2023-05-12T09:57:42.577Z,1511.00
2023-05-12T09:58:42.201Z,1514.00
2023-05-12T09:59:43.789Z,1522.00
2023-05-12T10:01:41.962Z,1516.00
2023-05-12T10:02:41.913Z,1533.00
2023-05-12T10:03:41.776Z,1558.00
2023-05-12T10:04:41.798Z,1604.00
2023-05-12T10:05:41.598Z,1641.00
2023-05-12T10:06:42.590Z,1648.00
2023-05-12T10:07:41.538Z,1679.00
2023-05-12T10:08:42.054Z,1691.00
2023-05-12T10:09:41.352Z,1731.00
2023-05-12T10:10:41.333Z,1697.00
2023-05-12T10:11:41.376Z,1729.00
2023-05-12T10:12:41.248Z,1730.00
2023-05-12T10:13:41.258Z,1756.00
2023-05-12T10:14:41.101Z,1787.00
2023-05-12T10:15:41.053Z,1766.00
2023-05-12T10:16:41.003Z,1778.00
2023-05-12T10:17:41.659Z,1816.00
2023-05-12T10:18:40.941Z,1786.00
2023-05-12T10:19:40.832Z,1775.00
2023-05-12T10:20:40.756Z,1786.00
2023-05-12T10:21:40.781Z,1809.00
2023-05-12T10:22:40.675Z,1829.00
2023-05-12T10:23:40.590Z,1819.00
2023-05-12T10:24:40.545Z,1820.00
2023-05-12T10:25:40.580Z,1824.00
2023-05-12T10:26:40.415Z,1837.00
2023-05-12T10:27:40.336Z,1820.00
2023-05-12T10:28:40.307Z,1840.00
2023-05-12T10:29:40.247Z,1884.00
2023-05-12T10:30:40.273Z,1857.00
2023-05-12T10:31:40.247Z,1909.00
2023-05-12T10:32:40.160Z,1891.00
2023-05-12T10:33:40.012Z,1914.00
2023-05-12T10:34:39.929Z,1934.00
2023-05-12T10:35:39.900Z,1949.00
2023-05-12T10:36:40.549Z,2007.00
2023-05-12T10:37:39.745Z,2147.00
2023-05-12T10:38:39.690Z,2132.00
2023-05-12T10:39:39.681Z,2119.00
2023-05-12T10:40:39.579Z,2120.00
2023-05-12T10:41:39.621Z,2042.00
2023-05-12T10:42:39.475Z,2012.00
2023-05-12T10:43:39.394Z,1994.00
2023-05-12T10:44:39.394Z,1845.00
2023-05-12T10:45:39.290Z,1711.00
2023-05-12T10:46:39.231Z,1626.00
2023-05-12T10:47:39.173Z,1524.00
2023-05-12T10:48:39.097Z,1436.00
2023-05-12T10:49:39.041Z,1345.00
2023-05-12T10:50:38.961Z,1354.00
2023-05-12T10:51:39.529Z,1323.00
2023-05-12T10:52:39.195Z,1299.00
2023-05-12T10:53:49.242Z,1269.00
2023-05-12T10:54:38.756Z,1271.00
2023-05-12T10:55:39.574Z,1279.00
2023-05-12T10:56:38.881Z,1296.00
2023-05-12T10:57:38.925Z,1333.00
2023-05-12T10:58:38.742Z,1409.00
2023-05-12T10:59:38.855Z,1465.00
2023-05-12T11:00:38.958Z,1459.00
2023-05-12T11:01:39.310Z,1408.00
2023-05-12T11:02:39.658Z,1458.00
2023-05-12T11:03:38.488Z,1473.00
2023-05-12T11:04:38.636Z,1495.00
2023-05-12T11:05:38.341Z,1511.00
2023-05-12T11:06:39.147Z,1551.00
2023-05-12T11:07:38.108Z,1521.00
2023-05-12T11:08:38.401Z,1514.00
2023-05-12T11:09:45.253Z,1491.00
2023-05-12T11:10:39.748Z,1491.00
2023-05-12T11:11:38.492Z,1489.00
2023-05-12T11:12:38.153Z,1491.00
2023-05-12T11:13:37.667Z,1505.00
2023-05-12T11:14:37.615Z,1556.00
2023-05-12T11:15:38.177Z,1593.00
2023-05-12T11:16:37.513Z,1577.00
2023-05-12T11:17:37.478Z,1610.00
2023-05-12T11:18:37.402Z,1638.00
2023-05-12T11:19:37.355Z,1653.00
2023-05-12T11:20:37.299Z,1665.00
2023-05-12T11:21:38.093Z,1676.00
2023-05-12T11:22:37.331Z,1669.00
2023-05-12T11:23:37.272Z,1699.00
2023-05-12T11:24:37.234Z,1766.00
2023-05-12T11:25:37.307Z,1769.00
2023-05-12T11:26:37.138Z,1723.00
2023-05-12T11:27:37.100Z,1817.00
2023-05-12T11:28:37.212Z,1882.00
2023-05-12T11:29:37.328Z,1916.00
2023-05-12T11:30:37.125Z,1918.00
2023-05-12T11:31:37.064Z,1907.00
2023-05-12T11:32:37.003Z,1932.00
2023-05-12T11:33:37.039Z,1993.00
2023-05-12T11:34:36.908Z,2017.00
2023-05-12T11:35:36.840Z,1990.00
2023-05-12T11:36:37.625Z,1933.00
2023-05-12T11:37:36.787Z,1929.00
2023-05-12T11:38:36.663Z,1871.00
2023-05-12T11:39:36.620Z,1792.00
2023-05-12T11:40:36.554Z,1759.00
2023-05-12T11:41:36.480Z,1742.00
2023-05-12T11:42:36.434Z,1732.00
2023-05-12T11:43:36.371Z,1710.00
2023-05-12T11:44:36.341Z,1654.00
2023-05-12T11:45:36.321Z,1634.00
2023-05-12T11:46:36.227Z,1630.00
2023-05-12T11:47:36.194Z,1581.00
2023-05-12T11:48:36.112Z,1581.00
2023-05-12T11:49:36.062Z,1544.00
2023-05-12T11:50:36.025Z,1533.00
2023-05-12T11:51:35.948Z,1516.00
2023-05-12T11:52:35.903Z,1495.00
2023-05-12T11:53:35.859Z,1496.00
2023-05-12T11:54:35.796Z,1498.00
2023-05-12T11:55:35.732Z,1489.00
2023-05-12T11:56:35.730Z,1474.00
2023-05-12T11:57:35.735Z,1455.00
2023-05-12T11:58:35.832Z,1454.00
2023-05-12T11:59:35.549Z,1420.00
2023-05-12T12:00:35.543Z,1412.00
2023-05-12T12:01:36.094Z,1385.00
2023-05-12T12:02:35.501Z,1355.00
2023-05-12T12:03:35.599Z,1342.00
2023-05-12T12:04:35.360Z,1339.00
2023-05-12T12:05:35.182Z,1313.00
2023-05-12T12:06:35.135Z,1318.00
2023-05-12T12:07:35.069Z,1306.00
2023-05-12T12:08:35.042Z,1316.00
2023-05-12T12:09:34.971Z,1305.00
2023-05-12T12:10:34.881Z,1311.00
2023-05-12T12:11:34.841Z,1298.00
2023-05-12T12:12:34.785Z,1299.00
2023-05-12T12:13:34.709Z,1278.00
2023-05-12T12:14:35.693Z,1235.00
2023-05-12T12:15:34.603Z,1232.00
2023-05-12T12:16:34.619Z,1223.00
2023-05-12T12:17:34.571Z,1207.00
2023-05-12T12:18:34.478Z,1206.00
2023-05-12T12:19:34.372Z,1166.00